createdAt,value
2017-09-26T00:00:14.967Z,20.30
2017-09-26T00:02:42.437Z,14.27
2017-09-26T00:05:10.698Z,18.00
2017-09-26T00:07:38.170Z,16.60
2017-09-26T00:10:06.421Z,16.83
2017-09-26T00:12:33.937Z,16.93
2017-09-26T00:15:01.410Z,20.10
2017-09-26T00:17:28.898Z,15.87
2017-09-26T00:19:56.367Z,20.80
2017-09-26T00:22:24.627Z,18.30
2017-09-26T00:24:52.104Z,20.10
2017-09-26T00:27:20.358Z,18.30
2017-09-26T00:29:47.826Z,19.30
2017-09-26T00:32:15.302Z,20.20
2017-09-26T00:34:43.545Z,16.20
2017-09-26T00:37:11.018Z,18.30
2017-09-26T00:39:39.267Z,27.03
2017-09-26T00:42:06.735Z,16.93
2017-09-26T00:44:34.249Z,22.70
2017-09-26T00:47:01.718Z,19.50
2017-09-26T00:49:29.194Z,18.07
2017-09-26T00:51:56.669Z,19.80
2017-09-26T00:54:24.144Z,23.10
2017-09-26T00:56:52.386Z,23.67
2017-09-26T00:59:19.864Z,18.97
2017-09-26T01:01:47.338Z,25.70
2017-09-26T01:04:16.462Z,21.90
2017-09-26T01:09:46.451Z,44.40
2017-09-26T01:12:13.925Z,29.00
2017-09-26T01:14:42.170Z,27.50
2017-09-26T01:17:09.650Z,25.03
2017-09-26T01:19:37.890Z,23.77
2017-09-26T01:22:05.366Z,21.77
2017-09-26T01:24:32.842Z,26.67
2017-09-26T01:27:01.077Z,21.70
2017-09-26T01:29:28.549Z,26.27
2017-09-26T01:31:56.050Z,25.80
2017-09-26T01:34:23.522Z,24.50
2017-09-26T01:36:51.003Z,29.93
2017-09-26T01:39:18.474Z,23.27
2017-09-26T01:41:46.082Z,28.30
2017-09-26T01:44:13.673Z,25.80
2017-09-26T01:46:41.144Z,28.67
2017-09-26T01:49:08.617Z,30.13
2017-09-26T01:51:36.099Z,26.30
2017-09-26T01:54:03.574Z,30.93
2017-09-26T01:56:31.065Z,33.50
2017-09-26T02:02:01.927Z,32.57
2017-09-26T02:04:29.393Z,34.40
2017-09-26T02:06:56.896Z,35.23
2017-09-26T02:09:24.388Z,32.33
2017-09-26T02:11:52.650Z,31.43
2017-09-26T02:14:20.196Z,29.00
2017-09-26T02:16:47.670Z,32.07
2017-09-26T02:19:15.138Z,33.87
2017-09-26T02:21:42.628Z,36.20
2017-09-26T02:24:10.869Z,33.10
2017-09-26T02:26:38.346Z,38.60
2017-09-26T02:29:05.907Z,34.83
2017-09-26T02:31:33.382Z,36.73
2017-09-26T02:34:01.645Z,34.60
2017-09-26T02:36:29.186Z,35.53
2017-09-26T02:38:56.663Z,39.60
2017-09-26T02:41:24.907Z,35.17
2017-09-26T02:43:53.148Z,43.17
2017-09-26T02:46:20.631Z,41.53
2017-09-26T02:48:48.102Z,38.50
2017-09-26T02:51:15.606Z,36.33
2017-09-26T02:53:43.081Z,39.80
2017-09-26T02:56:10.549Z,36.27
2017-09-26T02:58:38.028Z,37.87
2017-09-26T03:01:05.522Z,42.53
2017-09-26T03:03:33.758Z,47.53
2017-09-26T03:06:01.227Z,34.30
2017-09-26T03:08:28.707Z,38.57
2017-09-26T03:10:56.943Z,38.50
2017-09-26T03:13:24.420Z,41.97
2017-09-26T03:15:51.984Z,39.93
2017-09-26T03:18:19.458Z,40.20
2017-09-26T03:20:47.726Z,42.00
2017-09-26T03:23:15.990Z,43.90
2017-09-26T03:25:43.468Z,46.00
2017-09-26T03:28:11.830Z,42.93
2017-09-26T03:30:40.067Z,44.97
2017-09-26T03:33:07.605Z,45.50
2017-09-26T03:35:35.077Z,48.47
2017-09-26T03:38:02.556Z,47.57
2017-09-26T03:40:30.044Z,50.70
2017-09-26T03:42:58.277Z,49.03
2017-09-26T03:45:25.762Z,48.90
2017-09-26T03:47:53.230Z,43.93
2017-09-26T03:50:21.470Z,45.27
2017-09-26T03:52:48.948Z,42.27
2017-09-26T03:55:16.497Z,48.37
2017-09-26T03:57:43.969Z,43.00
2017-09-26T04:00:12.228Z,46.70
2017-09-26T04:02:39.730Z,46.50
2017-09-26T04:05:07.658Z,40.00
2017-09-26T04:07:35.288Z,43.73
2017-09-26T04:10:02.826Z,52.53
2017-09-26T04:12:30.467Z,44.63
2017-09-26T04:14:58.838Z,55.60
2017-09-26T04:17:27.254Z,45.53
2017-09-26T04:19:54.898Z,46.53
2017-09-26T04:22:22.486Z,47.07
2017-09-26T04:24:50.724Z,48.90
2017-09-26T04:27:18.214Z,42.53
2017-09-26T04:29:45.682Z,43.47
2017-09-26T04:32:13.172Z,46.10
2017-09-26T04:34:41.435Z,42.80
2017-09-26T04:37:08.967Z,49.20
2017-09-26T04:39:36.445Z,52.73
2017-09-26T04:42:03.917Z,51.70
2017-09-26T04:44:31.400Z,45.93
2017-09-26T04:46:59.645Z,46.60
2017-09-26T04:49:27.152Z,44.87
2017-09-26T04:51:54.639Z,53.10
2017-09-26T04:54:22.111Z,44.00
2017-09-26T04:56:49.621Z,41.33
2017-09-26T04:59:17.092Z,45.60
2017-09-26T05:01:44.559Z,44.40
2017-09-26T05:04:12.071Z,49.20
2017-09-26T05:06:39.541Z,43.60
2017-09-26T05:09:07.023Z,44.73
2017-09-26T05:11:34.504Z,43.50
2017-09-26T05:14:01.979Z,43.33
2017-09-26T05:16:30.236Z,41.27
2017-09-26T05:18:57.709Z,43.40
2017-09-26T05:21:25.960Z,48.87
2017-09-26T05:23:53.435Z,48.33
2017-09-26T05:26:20.927Z,57.50
2017-09-26T05:28:48.397Z,43.43
2017-09-26T05:31:15.873Z,46.50
2017-09-26T05:33:43.351Z,42.20
2017-09-26T05:36:10.846Z,41.13
2017-09-26T05:38:39.093Z,51.00
2017-09-26T05:41:06.560Z,47.00
2017-09-26T05:43:34.806Z,42.43
2017-09-26T05:46:02.278Z,44.40
2017-09-26T05:48:29.762Z,56.47
2017-09-26T05:50:57.989Z,48.47
2017-09-26T05:53:25.506Z,47.10
2017-09-26T05:55:53.030Z,47.07
2017-09-26T05:58:21.296Z,47.83
2017-09-26T06:00:48.786Z,42.03
2017-09-26T06:03:16.261Z,47.80
2017-09-26T06:05:43.778Z,39.17
2017-09-26T06:08:11.264Z,43.90
2017-09-26T06:10:38.743Z,45.77
2017-09-26T06:13:06.249Z,42.17
2017-09-26T06:15:33.738Z,44.33
2017-09-26T06:18:01.210Z,39.37
2017-09-26T06:20:28.718Z,48.53
2017-09-26T06:22:56.294Z,50.77
2017-09-26T06:25:24.558Z,43.17
2017-09-26T06:27:52.115Z,43.93
2017-09-26T06:30:19.597Z,42.40
2017-09-26T06:32:47.135Z,45.90
2017-09-26T06:35:15.405Z,47.77
2017-09-26T06:37:42.966Z,47.80
2017-09-26T06:40:10.474Z,42.83
2017-09-26T06:42:37.954Z,45.57
2017-09-26T06:45:05.430Z,41.47
2017-09-26T06:47:32.911Z,43.47
2017-09-26T06:50:01.160Z,43.13
2017-09-26T06:52:28.742Z,44.67
2017-09-26T06:54:57.056Z,44.20
2017-09-26T06:57:24.533Z,47.73
2017-09-26T06:59:52.022Z,43.60
2017-09-26T07:02:20.351Z,44.17
2017-09-26T07:04:47.821Z,45.27
2017-09-26T07:07:15.302Z,48.60
2017-09-26T07:09:42.921Z,45.47
2017-09-26T07:12:10.423Z,44.00
2017-09-26T07:14:37.904Z,47.97
2017-09-26T07:17:05.403Z,44.23
2017-09-26T07:19:32.904Z,45.63
2017-09-26T07:22:01.155Z,37.37
2017-09-26T07:24:29.407Z,39.27
2017-09-26T07:26:56.954Z,43.00
2017-09-26T07:29:24.467Z,42.70
2017-09-26T07:31:51.934Z,47.37
2017-09-26T07:34:20.298Z,41.53
2017-09-26T07:36:47.861Z,39.03
2017-09-26T07:39:16.109Z,39.80
2017-09-26T07:41:43.594Z,40.97
2017-09-26T07:44:11.853Z,42.20
2017-09-26T07:46:39.422Z,40.50
2017-09-26T07:49:06.990Z,43.07
2017-09-26T07:51:35.232Z,41.67
2017-09-26T07:54:02.702Z,45.53
2017-09-26T07:56:30.270Z,39.27
2017-09-26T07:58:57.880Z,39.07
2017-09-26T08:01:25.584Z,40.50
2017-09-26T08:03:53.175Z,37.43
2017-09-26T08:06:21.532Z,39.07
2017-09-26T08:08:49.903Z,40.60
2017-09-26T08:11:17.365Z,39.03
2017-09-26T08:13:44.854Z,45.13
2017-09-26T08:16:12.533Z,44.57
2017-09-26T08:18:40.033Z,39.00
2017-09-26T08:21:07.598Z,39.50
2017-09-26T08:23:35.874Z,43.63
2017-09-26T08:26:04.145Z,40.23
2017-09-26T08:28:31.618Z,45.33
2017-09-26T08:30:59.853Z,42.20
2017-09-26T08:33:27.368Z,37.40
2017-09-26T08:35:55.603Z,37.83
2017-09-26T08:38:23.174Z,35.73
2017-09-26T08:40:50.642Z,39.07
2017-09-26T08:43:18.902Z,42.13
2017-09-26T08:45:46.468Z,34.80
2017-09-26T08:48:13.933Z,31.40
2017-09-26T08:50:42.202Z,41.20
2017-09-26T08:53:09.753Z,38.67
2017-09-26T08:55:37.314Z,36.70
2017-09-26T08:58:04.873Z,33.43
2017-09-26T09:00:32.357Z,36.43
2017-09-26T09:03:00.656Z,27.17
2017-09-26T09:05:28.127Z,32.33
2017-09-26T09:07:55.601Z,33.20
2017-09-26T09:10:23.181Z,31.67
2017-09-26T09:12:50.747Z,35.37
2017-09-26T09:15:18.231Z,29.27
2017-09-26T09:17:45.761Z,36.50
2017-09-26T09:20:13.313Z,30.17
2017-09-26T09:22:40.866Z,33.23
2017-09-26T09:25:08.338Z,30.50
2017-09-26T09:27:36.578Z,30.70
2017-09-26T09:30:04.044Z,30.60
2017-09-26T09:32:31.516Z,31.13
2017-09-26T09:34:59.076Z,36.28
2017-09-26T09:37:26.641Z,36.53
2017-09-26T09:39:54.883Z,36.23
2017-09-26T09:42:22.463Z,30.60
2017-09-26T09:44:50.748Z,30.27
2017-09-26T09:47:18.225Z,32.57
2017-09-26T09:49:46.454Z,28.57
2017-09-26T09:52:13.961Z,29.13
2017-09-26T09:54:41.438Z,33.53
2017-09-26T09:57:08.906Z,32.40
2017-09-26T09:59:36.397Z,37.57
2017-09-26T10:02:04.638Z,27.07
2017-09-26T10:04:32.113Z,31.30
2017-09-26T10:06:59.578Z,36.37
2017-09-26T10:09:27.147Z,32.33
2017-09-26T10:11:54.710Z,34.30
2017-09-26T10:14:22.215Z,30.63
2017-09-26T10:16:49.696Z,30.20
2017-09-26T10:19:17.215Z,32.13
2017-09-26T10:21:44.789Z,32.53
2017-09-26T10:24:12.254Z,28.87
2017-09-26T10:26:39.717Z,28.07
2017-09-26T10:29:07.181Z,30.73
2017-09-26T10:31:37.318Z,28.37
2017-09-26T10:34:04.879Z,36.30
2017-09-26T10:36:32.442Z,30.83
2017-09-26T10:39:00.009Z,33.20
2017-09-26T10:41:27.482Z,32.97
2017-09-26T10:43:57.293Z,32.93
2017-09-26T10:46:25.396Z,36.20
2017-09-26T10:48:52.905Z,31.87
2017-09-26T10:51:20.398Z,30.37
2017-09-26T10:53:47.873Z,33.10
2017-09-26T10:56:15.411Z,30.77
2017-09-26T10:58:44.212Z,31.50
2017-09-26T11:01:12.591Z,33.30
2017-09-26T11:03:40.062Z,30.70
2017-09-26T11:06:07.609Z,26.73
2017-09-26T11:08:35.119Z,31.93
2017-09-26T11:11:02.586Z,27.30
2017-09-26T11:13:30.983Z,30.77
2017-09-26T11:15:58.513Z,31.20
2017-09-26T11:18:25.986Z,33.60
2017-09-26T11:20:54.238Z,30.37
2017-09-26T11:23:21.753Z,25.80
2017-09-26T11:25:49.222Z,22.93
2017-09-26T11:28:16.695Z,25.50
2017-09-26T11:30:44.172Z,31.20
2017-09-26T11:33:11.643Z,25.73
2017-09-26T11:35:39.888Z,28.07
2017-09-26T11:38:07.357Z,26.23
2017-09-26T11:40:34.837Z,33.03
2017-09-26T11:43:03.070Z,32.43
2017-09-26T11:45:30.543Z,32.83
2017-09-26T11:47:58.011Z,31.03
2017-09-26T11:50:25.504Z,26.07
2017-09-26T11:52:52.966Z,29.20
2017-09-26T11:55:20.425Z,32.73
2017-09-26T11:57:47.913Z,24.57
2017-09-26T12:00:15.382Z,34.03
2017-09-26T12:02:42.851Z,27.23
2017-09-26T12:05:11.166Z,29.53
2017-09-26T12:07:38.635Z,27.53
2017-09-26T12:10:06.117Z,29.53
2017-09-26T12:12:33.590Z,26.33
2017-09-26T12:15:01.057Z,22.07
2017-09-26T12:17:29.306Z,24.03
2017-09-26T12:19:56.826Z,23.80
2017-09-26T12:22:24.329Z,34.27
2017-09-26T12:24:51.793Z,41.50
2017-09-26T12:27:19.261Z,35.17
2017-09-26T12:29:47.503Z,30.20
2017-09-26T12:32:14.975Z,30.17
2017-09-26T12:34:42.455Z,29.53
2017-09-26T12:37:10.688Z,28.80
2017-09-26T12:39:38.160Z,26.30
2017-09-26T12:42:05.629Z,27.20
2017-09-26T12:44:33.102Z,28.83
2017-09-26T12:47:01.362Z,25.83
2017-09-26T12:49:28.850Z,25.70
2017-09-26T12:51:56.328Z,24.90
2017-09-26T12:54:23.806Z,31.10
2017-09-26T12:56:51.277Z,31.17
2017-09-26T12:59:18.750Z,30.50
2017-09-26T13:01:46.988Z,27.87
2017-09-26T13:04:14.479Z,29.60
2017-09-26T13:06:42.710Z,28.93
2017-09-26T13:09:10.322Z,30.70
2017-09-26T13:11:38.613Z,29.10
2017-09-26T13:14:06.866Z,32.17
2017-09-26T13:16:35.184Z,28.67
2017-09-26T13:19:02.669Z,31.40
2017-09-26T13:21:30.155Z,31.83
2017-09-26T13:23:57.618Z,28.83
2017-09-26T13:26:25.872Z,30.47
2017-09-26T13:28:53.347Z,32.07
2017-09-26T13:31:20.818Z,35.57
2017-09-26T13:33:49.054Z,28.50
2017-09-26T13:36:16.576Z,31.47
2017-09-26T13:38:44.074Z,30.50
2017-09-26T13:41:11.545Z,31.47
2017-09-26T13:43:39.011Z,32.57
2017-09-26T13:46:07.270Z,28.10
2017-09-26T13:48:34.733Z,29.00
2017-09-26T13:51:02.206Z,36.77
2017-09-26T13:53:30.506Z,31.80
2017-09-26T13:55:58.018Z,30.23
2017-09-26T13:58:25.504Z,31.47
2017-09-26T14:00:52.980Z,28.63
2017-09-26T14:03:20.463Z,29.80
2017-09-26T14:05:47.934Z,29.47
2017-09-26T14:08:15.402Z,28.77
2017-09-26T14:10:42.884Z,43.17
2017-09-26T14:13:11.130Z,30.83
2017-09-26T14:15:38.616Z,34.40
2017-09-26T14:18:06.119Z,33.70
2017-09-26T14:20:33.590Z,34.33
2017-09-26T14:23:01.089Z,29.13
2017-09-26T14:25:29.328Z,29.43
2017-09-26T14:27:56.828Z,34.20
2017-09-26T14:30:24.293Z,32.73
2017-09-26T14:32:51.766Z,27.10
2017-09-26T14:35:19.242Z,38.10
2017-09-26T14:37:46.720Z,33.37
2017-09-26T14:40:14.190Z,29.70
2017-09-26T14:42:42.434Z,26.50
2017-09-26T14:45:09.906Z,31.93
2017-09-26T14:47:37.382Z,29.47
2017-09-26T14:50:05.634Z,32.13
2017-09-26T14:52:33.211Z,30.60
2017-09-26T14:55:00.682Z,33.13
2017-09-26T14:57:28.919Z,29.80
2017-09-26T14:59:56.414Z,31.00
2017-09-26T15:02:24.664Z,37.70
2017-09-26T15:04:52.131Z,31.93
2017-09-26T15:07:19.601Z,34.23
2017-09-26T15:09:47.834Z,34.90
2017-09-26T15:12:15.319Z,42.17
2017-09-26T15:14:42.782Z,32.80
2017-09-26T15:17:11.034Z,38.23
2017-09-26T15:19:38.502Z,32.90
2017-09-26T15:22:05.974Z,31.73
2017-09-26T15:24:34.213Z,29.77
2017-09-26T15:27:01.685Z,36.13
2017-09-26T15:29:29.159Z,32.93
2017-09-26T15:31:57.402Z,33.03
2017-09-26T15:34:24.874Z,31.13
2017-09-26T15:36:52.383Z,33.77
2017-09-26T15:39:19.862Z,32.83
2017-09-26T15:41:47.337Z,33.30
2017-09-26T15:44:14.802Z,32.40
2017-09-26T15:46:42.283Z,33.57
2017-09-26T15:49:10.595Z,29.50
2017-09-26T15:51:38.072Z,29.50
2017-09-26T15:54:05.560Z,30.87
2017-09-26T15:56:33.034Z,30.93
2017-09-26T15:59:01.271Z,31.90
2017-09-26T16:01:28.776Z,31.67
2017-09-26T16:03:56.249Z,32.20
2017-09-26T16:06:23.739Z,32.87
2017-09-26T16:08:51.246Z,35.77
2017-09-26T16:11:18.717Z,35.43
2017-09-26T16:13:46.380Z,36.63
2017-09-26T16:16:13.846Z,39.30
2017-09-26T16:18:41.330Z,36.50
2017-09-26T16:21:08.835Z,40.30
2017-09-26T16:23:36.323Z,44.50
2017-09-26T16:26:03.800Z,34.73
2017-09-26T16:28:31.270Z,33.80
2017-09-26T16:30:58.833Z,35.33
2017-09-26T16:33:26.328Z,37.33
2017-09-26T16:35:53.854Z,39.03
2017-09-26T16:38:21.351Z,37.77
2017-09-26T16:40:48.823Z,40.53
2017-09-26T16:43:16.304Z,40.50
2017-09-26T16:45:43.774Z,39.57
2017-09-26T16:48:12.010Z,40.30
2017-09-26T16:50:39.487Z,38.70
2017-09-26T16:53:07.061Z,39.10
2017-09-26T16:55:35.367Z,39.10
2017-09-26T16:58:03.598Z,37.90
2017-09-26T17:00:31.179Z,35.90
2017-09-26T17:02:58.690Z,39.90
2017-09-26T17:05:26.158Z,45.93
2017-09-26T17:07:53.646Z,37.43
2017-09-26T17:10:21.921Z,37.33
2017-09-26T17:12:50.904Z,41.53
2017-09-26T17:15:18.376Z,37.70
2017-09-26T17:17:45.847Z,41.73
2017-09-26T17:20:14.074Z,39.70
2017-09-26T17:22:41.611Z,47.60
2017-09-26T17:25:09.084Z,41.07
2017-09-26T17:27:36.553Z,48.77
2017-09-26T17:30:04.018Z,44.20
2017-09-26T17:32:31.605Z,43.33
2017-09-26T17:34:59.915Z,45.43
2017-09-26T17:37:27.394Z,44.03
2017-09-26T17:39:54.865Z,40.60
2017-09-26T17:42:22.330Z,41.03
2017-09-26T17:44:49.810Z,46.23
2017-09-26T17:47:18.065Z,41.30
2017-09-26T17:49:45.626Z,42.73
2017-09-26T17:52:13.870Z,48.27
2017-09-26T17:54:41.338Z,42.57
2017-09-26T17:57:08.797Z,48.03
2017-09-26T17:59:36.265Z,44.40
2017-09-26T18:02:03.740Z,44.67
2017-09-26T18:04:32.002Z,42.47
2017-09-26T18:06:59.613Z,39.23
2017-09-26T18:09:27.085Z,42.50
2017-09-26T18:11:54.559Z,44.73
2017-09-26T18:14:22.037Z,42.03
2017-09-26T18:16:49.507Z,41.70
2017-09-26T18:19:17.753Z,45.87
2017-09-26T18:21:45.224Z,40.17
2017-09-26T18:24:12.783Z,48.33
2017-09-26T18:29:14.986Z,44.47
2017-09-26T18:31:42.482Z,48.43
2017-09-26T18:34:10.086Z,48.20
2017-09-26T18:36:37.554Z,50.93
2017-09-26T18:39:05.106Z,45.83
2017-09-26T18:41:32.579Z,40.50
2017-09-26T18:44:00.813Z,50.17
2017-09-26T18:46:28.299Z,41.20
2017-09-26T18:48:56.545Z,48.33
2017-09-26T18:51:24.454Z,44.33
2017-09-26T18:53:52.351Z,48.23
2017-09-26T18:56:19.859Z,51.67
2017-09-26T18:58:48.130Z,50.77
2017-09-26T19:01:16.370Z,46.83
2017-09-26T19:03:43.858Z,54.40
2017-09-26T19:06:12.248Z,45.07
2017-09-26T19:08:40.553Z,46.70
2017-09-26T19:11:08.049Z,51.03
2017-09-26T19:13:35.658Z,54.30
2017-09-26T19:16:03.157Z,57.90
2017-09-26T19:18:30.910Z,49.40
2017-09-26T19:20:58.386Z,49.70
2017-09-26T19:23:25.870Z,44.33
2017-09-26T19:25:53.445Z,45.20
2017-09-26T19:28:21.681Z,48.93
2017-09-26T19:30:49.399Z,44.50
2017-09-26T19:33:16.907Z,54.93
2017-09-26T19:35:44.483Z,49.63
2017-09-26T19:38:12.830Z,42.70
2017-09-26T19:40:40.310Z,55.30
2017-09-26T19:43:07.806Z,49.70
2017-09-26T19:45:35.598Z,53.70
2017-09-26T19:48:03.170Z,47.47
2017-09-26T19:50:31.445Z,47.07
2017-09-26T19:52:58.929Z,54.47
2017-09-26T19:55:27.249Z,47.07
2017-09-26T19:57:54.754Z,46.70
2017-09-26T20:00:22.236Z,46.00
2017-09-26T20:02:50.485Z,46.00
2017-09-26T20:05:18.050Z,55.90
2017-09-26T20:07:47.034Z,55.07
2017-09-26T20:10:14.599Z,52.20
2017-09-26T20:12:42.124Z,55.97
2017-09-26T20:15:09.622Z,50.70
2017-09-26T20:17:37.865Z,52.47
2017-09-26T20:20:05.466Z,52.40
2017-09-26T20:22:33.779Z,52.27
2017-09-26T20:25:01.265Z,54.90
2017-09-26T20:27:28.750Z,51.60
2017-09-26T20:29:57.009Z,59.17
2017-09-26T20:32:25.309Z,51.37
2017-09-26T20:34:53.573Z,61.50
2017-09-26T20:37:21.050Z,50.80
2017-09-26T20:39:48.522Z,53.17
2017-09-26T20:42:16.002Z,49.83
2017-09-26T20:44:43.549Z,57.83
2017-09-26T20:47:11.060Z,53.80
2017-09-26T20:49:38.667Z,48.57
2017-09-26T20:52:06.170Z,57.73
2017-09-26T20:54:33.695Z,52.50
2017-09-26T20:57:01.171Z,53.60
2017-09-26T20:59:28.655Z,48.83
2017-09-26T21:01:56.903Z,52.67
2017-09-26T21:04:24.743Z,57.07
2017-09-26T21:06:52.242Z,48.40
2017-09-26T21:09:19.711Z,52.67
2017-09-26T21:11:47.957Z,48.30
2017-09-26T21:14:15.538Z,58.43
2017-09-26T21:16:43.070Z,49.20
2017-09-26T21:19:10.559Z,48.20
2017-09-26T21:21:38.812Z,55.27
2017-09-26T21:24:06.290Z,54.90
2017-09-26T21:26:34.529Z,52.50
2017-09-26T21:29:02.035Z,54.87
2017-09-26T21:31:30.271Z,59.00
2017-09-26T21:33:57.751Z,65.20
2017-09-26T21:36:26.002Z,52.93
2017-09-26T21:38:53.478Z,54.50
2017-09-26T21:41:20.954Z,56.50
2017-09-26T21:43:49.196Z,59.63
2017-09-26T21:46:16.682Z,57.93
2017-09-26T21:48:44.943Z,55.00
2017-09-26T21:51:12.566Z,55.00
2017-09-26T21:53:40.103Z,64.43
2017-09-26T21:56:07.597Z,60.20
2017-09-26T21:58:35.090Z,70.60
2017-09-26T22:01:03.449Z,58.07
2017-09-26T22:03:30.927Z,57.27
2017-09-26T22:05:59.162Z,56.10
2017-09-26T22:08:26.763Z,66.03
2017-09-26T22:10:54.305Z,63.83
2017-09-26T22:13:21.836Z,61.70
2017-09-26T22:15:49.323Z,60.13
2017-09-26T22:18:17.577Z,59.80
2017-09-26T22:20:51.449Z,64.87
2017-09-26T22:23:18.926Z,73.43
2017-09-26T22:25:46.401Z,59.93
2017-09-26T22:28:13.886Z,65.67
2017-09-26T22:30:42.126Z,66.90
2017-09-26T22:33:09.631Z,66.60
2017-09-26T22:35:37.106Z,61.63
2017-09-26T22:38:04.582Z,63.13
2017-09-26T22:40:32.077Z,65.97
2017-09-26T22:43:00.322Z,60.43
2017-09-26T22:45:28.436Z,69.50
2017-09-26T22:47:56.702Z,70.10
2017-09-26T22:50:25.022Z,74.27
2017-09-26T22:52:52.489Z,62.13
2017-09-26T22:55:20.036Z,65.47
2017-09-26T22:57:47.519Z,64.63
2017-09-26T23:00:14.998Z,65.27
2017-09-26T23:02:42.516Z,63.87
2017-09-26T23:05:10.015Z,60.13
2017-09-26T23:07:37.482Z,65.87
2017-09-26T23:10:05.726Z,62.43
2017-09-26T23:12:33.205Z,63.97
2017-09-26T23:15:00.669Z,70.27
2017-09-26T23:17:28.926Z,64.57
2017-09-26T23:19:56.440Z,60.43
2017-09-26T23:22:23.913Z,60.83
2017-09-26T23:24:51.456Z,65.10
2017-09-26T23:27:18.929Z,79.23
2017-09-26T23:29:46.399Z,60.93
2017-09-26T23:32:13.874Z,66.03
2017-09-26T23:34:41.378Z,60.00
2017-09-26T23:37:09.590Z,64.87
2017-09-26T23:39:37.070Z,69.73
2017-09-26T23:42:05.320Z,64.53
2017-09-26T23:44:32.849Z,66.37
2017-09-26T23:47:00.317Z,64.70
2017-09-26T23:49:27.794Z,68.10
2017-09-26T23:51:55.266Z,66.10
2017-09-26T23:54:22.766Z,66.13
2017-09-26T23:56:50.274Z,63.47
2017-09-26T23:59:17.754Z,62.23
